createdAt,value
2018-11-06T00:00:31.825Z,54.30
2018-11-06T00:03:21.138Z,55.90
2018-11-06T00:05:53.589Z,52.00
2018-11-06T00:08:25.206Z,50.73
2018-11-06T00:10:56.779Z,56.17
2018-11-06T00:13:27.813Z,53.23
2018-11-06T00:15:59.364Z,54.30
2018-11-06T00:18:31.345Z,54.13
2018-11-06T00:21:02.354Z,55.40
2018-11-06T00:23:34.836Z,57.53
2018-11-06T00:26:06.003Z,53.87
2018-11-06T00:28:37.203Z,52.60
2018-11-06T00:31:08.275Z,53.23
2018-11-06T00:33:40.717Z,54.60
2018-11-06T00:36:12.652Z,53.23
2018-11-06T00:38:43.796Z,50.13
2018-11-06T00:41:15.271Z,52.00
2018-11-06T00:43:46.354Z,50.77
2018-11-06T00:46:17.849Z,52.27
2018-11-06T00:48:49.400Z,51.43
2018-11-06T00:51:20.393Z,49.40
2018-11-06T00:53:52.116Z,53.63
2018-11-06T00:56:24.530Z,54.93
2018-11-06T00:58:56.027Z,55.60
2018-11-06T01:01:27.169Z,52.00
2018-11-06T01:04:09.596Z,51.93
2018-11-06T01:06:42.974Z,52.57
2018-11-06T01:09:15.540Z,56.27
2018-11-06T01:11:47.096Z,52.47
2018-11-06T01:14:18.954Z,54.83
2018-11-06T01:16:51.181Z,54.07
2018-11-06T01:19:23.565Z,50.30
2018-11-06T01:21:54.882Z,52.10
2018-11-06T01:24:25.932Z,55.67
2018-11-06T01:26:58.408Z,56.20
2018-11-06T01:29:29.891Z,56.90
2018-11-06T01:32:01.370Z,58.50
2018-11-06T01:34:32.714Z,58.33
2018-11-06T01:37:03.934Z,56.60
2018-11-06T01:39:35.873Z,54.30
2018-11-06T01:42:07.472Z,54.03
2018-11-06T01:44:38.579Z,55.00
2018-11-06T01:47:10.131Z,50.90
2018-11-06T01:49:42.324Z,46.93
2018-11-06T01:52:13.767Z,46.93
2018-11-06T01:54:45.490Z,45.93
2018-11-06T01:57:16.506Z,42.70
2018-11-06T01:59:49.218Z,42.13
2018-11-06T02:02:20.221Z,42.27
2018-11-06T02:04:52.595Z,44.67
2018-11-06T02:07:25.364Z,43.00
2018-11-06T02:09:57.437Z,41.63
2018-11-06T02:12:33.261Z,40.70
2018-11-06T02:15:01.877Z,41.30
2018-11-06T02:17:33.320Z,40.23
2018-11-06T02:20:05.743Z,40.13
2018-11-06T02:22:38.377Z,39.47
2018-11-06T02:25:10.841Z,40.50
2018-11-06T02:27:41.822Z,39.37
2018-11-06T02:30:15.949Z,39.43
2018-11-06T02:32:47.826Z,37.30
2018-11-06T02:35:18.907Z,37.27
2018-11-06T02:37:49.928Z,36.67
2018-11-06T02:40:21.374Z,36.80
2018-11-06T02:42:53.284Z,35.87
2018-11-06T02:45:24.346Z,33.07
2018-11-06T02:47:55.462Z,33.17
2018-11-06T02:50:26.861Z,32.17
2018-11-06T02:53:00.128Z,31.50
2018-11-06T02:55:31.137Z,32.70
2018-11-06T02:58:03.205Z,32.80
2018-11-06T03:00:34.545Z,32.33
2018-11-06T03:03:05.628Z,31.70
2018-11-06T03:05:38.810Z,32.93
2018-11-06T03:08:09.829Z,33.67
2018-11-06T03:10:41.921Z,34.27
2018-11-06T03:13:15.325Z,33.10
2018-11-06T03:15:46.448Z,34.30
2018-11-06T03:18:17.899Z,33.60
2018-11-06T03:20:48.963Z,30.70
2018-11-06T03:23:21.419Z,34.50
2018-11-06T03:25:53.798Z,34.50
2018-11-06T03:28:24.808Z,34.47
2018-11-06T03:30:55.971Z,34.60
2018-11-06T03:33:27.347Z,33.27
2018-11-06T03:35:59.269Z,33.57
2018-11-06T03:38:31.081Z,33.20
2018-11-06T03:41:02.565Z,33.77
2018-11-06T03:43:34.555Z,32.87
2018-11-06T03:46:06.573Z,34.80
2018-11-06T03:48:39.842Z,34.37
2018-11-06T03:51:11.766Z,34.97
2018-11-06T03:53:42.805Z,35.00
2018-11-06T03:56:13.818Z,32.67
2018-11-06T03:58:46.026Z,31.70
2018-11-06T04:01:21.825Z,31.20
2018-11-06T04:03:54.253Z,30.43
2018-11-06T04:06:25.247Z,30.37
2018-11-06T04:08:56.375Z,28.10
2018-11-06T04:11:27.416Z,29.40
2018-11-06T04:13:58.924Z,28.10
2018-11-06T04:16:31.951Z,26.27
2018-11-06T04:19:03.145Z,27.40
2018-11-06T04:21:36.343Z,27.73
2018-11-06T04:24:10.127Z,27.57
2018-11-06T04:26:41.918Z,27.43
2018-11-06T04:29:13.873Z,27.30
2018-11-06T04:31:45.775Z,27.53
2018-11-06T04:34:18.409Z,29.37
2018-11-06T04:36:50.037Z,28.60
2018-11-06T04:39:21.205Z,28.87
2018-11-06T04:41:53.265Z,29.37
2018-11-06T04:44:25.178Z,28.63
2018-11-06T04:46:57.530Z,27.87
2018-11-06T04:49:29.571Z,28.10
2018-11-06T04:52:00.649Z,29.03
2018-11-06T04:54:32.895Z,28.00
2018-11-06T04:57:03.937Z,28.23
2018-11-06T04:59:36.495Z,28.50
2018-11-06T05:02:08.280Z,27.33
2018-11-06T05:04:39.523Z,27.87
2018-11-06T05:07:10.675Z,28.53
2018-11-06T05:09:42.022Z,28.13
2018-11-06T05:12:14.040Z,26.60
2018-11-06T05:14:45.289Z,27.27
2018-11-06T05:17:17.216Z,26.30
2018-11-06T05:19:48.728Z,26.30
2018-11-06T05:22:20.865Z,27.00
2018-11-06T05:24:52.829Z,26.10
2018-11-06T05:27:24.561Z,25.97
2018-11-06T05:29:55.601Z,26.93
2018-11-06T05:32:26.986Z,25.33
2018-11-06T05:34:58.868Z,23.50
2018-11-06T05:37:30.816Z,25.00
2018-11-06T05:40:37.732Z,23.20
2018-11-06T05:43:09.197Z,24.07
2018-11-06T05:45:41.530Z,22.33
2018-11-06T05:48:12.893Z,24.13
2018-11-06T05:50:43.950Z,23.50
2018-11-06T05:53:15.521Z,23.43
2018-11-06T05:55:46.825Z,22.17
2018-11-06T05:58:18.372Z,23.57
2018-11-06T06:00:50.514Z,25.17
2018-11-06T06:03:22.473Z,25.13
2018-11-06T06:05:54.310Z,24.30
2018-11-06T06:08:25.318Z,23.80
2018-11-06T06:10:56.456Z,23.17
2018-11-06T06:13:29.913Z,23.20
2018-11-06T06:16:01.942Z,21.77
2018-11-06T06:18:33.839Z,22.13
2018-11-06T06:21:05.189Z,22.20
2018-11-06T06:23:36.694Z,24.17
2018-11-06T06:26:08.209Z,24.20
2018-11-06T06:28:39.318Z,24.37
2018-11-06T06:31:10.413Z,22.73
2018-11-06T06:33:41.966Z,23.23
2018-11-06T06:36:13.896Z,22.17
2018-11-06T06:38:47.389Z,22.67
2018-11-06T06:41:19.025Z,23.50
2018-11-06T06:43:50.578Z,22.53
2018-11-06T06:46:21.728Z,22.23
2018-11-06T06:48:53.972Z,21.07
2018-11-06T06:51:25.445Z,21.03
2018-11-06T06:53:56.994Z,19.80
2018-11-06T06:56:29.104Z,21.73
2018-11-06T06:59:00.840Z,20.80
2018-11-06T07:01:32.359Z,20.27
2018-11-06T07:04:04.750Z,20.97
2018-11-06T07:06:36.242Z,22.10
2018-11-06T07:09:11.162Z,20.40
2018-11-06T07:11:43.142Z,19.27
2018-11-06T07:14:15.804Z,18.63
2018-11-06T07:16:46.954Z,19.07
2018-11-06T07:19:18.441Z,19.90
2018-11-06T07:21:50.815Z,19.57
2018-11-06T07:24:22.485Z,18.67
2018-11-06T07:26:53.521Z,17.90
2018-11-06T07:29:25.644Z,18.13
2018-11-06T07:31:57.974Z,18.00
2018-11-06T07:34:29.406Z,17.93
2018-11-06T07:37:00.785Z,19.33
2018-11-06T07:39:32.746Z,18.57
2018-11-06T07:42:04.113Z,19.47
2018-11-06T07:44:36.663Z,19.43
2018-11-06T07:47:08.939Z,19.30
2018-11-06T07:49:40.134Z,19.03
2018-11-06T07:52:11.643Z,19.23
2018-11-06T07:54:44.412Z,19.97
2018-11-06T07:57:15.443Z,19.80
2018-11-06T07:59:46.677Z,19.00
2018-11-06T08:02:18.434Z,20.33
2018-11-06T08:04:49.976Z,20.83
2018-11-06T08:07:22.283Z,20.83
2018-11-06T08:09:54.546Z,20.50
2018-11-06T08:12:29.614Z,20.80
2018-11-06T08:15:01.294Z,21.17
2018-11-06T08:17:32.677Z,21.53
2018-11-06T08:20:04.767Z,20.73
2018-11-06T08:22:35.838Z,20.67
2018-11-06T08:25:09.190Z,21.00
2018-11-06T08:27:41.232Z,21.37
2018-11-06T08:30:12.868Z,21.77
2018-11-06T08:32:45.372Z,22.73
2018-11-06T08:35:17.154Z,21.87
2018-11-06T08:37:48.200Z,21.50
2018-11-06T08:40:21.530Z,22.20
2018-11-06T08:42:53.404Z,23.20
2018-11-06T08:45:24.465Z,23.90
2018-11-06T08:47:56.268Z,23.20
2018-11-06T08:50:29.482Z,22.87
2018-11-06T08:53:01.506Z,23.70
2018-11-06T08:55:32.662Z,22.63
2018-11-06T08:58:04.003Z,23.97
2018-11-06T09:00:36.412Z,22.73
2018-11-06T09:03:07.465Z,21.80
2018-11-06T09:05:38.527Z,23.40
2018-11-06T09:08:09.534Z,23.83
2018-11-06T09:10:41.885Z,23.90
2018-11-06T09:13:14.193Z,24.00
2018-11-06T09:15:46.599Z,24.27
2018-11-06T09:18:18.118Z,24.83
2018-11-06T09:20:50.135Z,25.13
2018-11-06T09:23:22.529Z,24.83
2018-11-06T09:25:55.750Z,25.80
2018-11-06T09:28:26.803Z,25.83
2018-11-06T09:30:58.298Z,25.13
2018-11-06T09:33:30.982Z,24.10
2018-11-06T09:36:02.384Z,36.30
2018-11-06T09:38:33.442Z,51.40
2018-11-06T09:41:04.477Z,45.10
2018-11-06T09:43:36.314Z,37.47
2018-11-06T09:46:08.326Z,28.23
2018-11-06T09:48:39.465Z,26.13
2018-11-06T09:51:10.487Z,25.97
2018-11-06T09:53:41.984Z,24.80
2018-11-06T09:56:13.389Z,24.57
2018-11-06T09:58:45.738Z,24.60
2018-11-06T10:01:17.204Z,24.20
2018-11-06T10:03:50.838Z,23.43
2018-11-06T10:06:22.359Z,26.10
2018-11-06T10:08:53.881Z,25.03
2018-11-06T10:11:25.390Z,25.00
2018-11-06T10:13:57.220Z,24.80
2018-11-06T10:16:28.633Z,23.97
2018-11-06T10:19:00.835Z,25.63
2018-11-06T10:21:31.886Z,23.73
2018-11-06T10:24:03.289Z,25.60
2018-11-06T10:26:34.285Z,25.30
2018-11-06T10:29:05.307Z,24.83
2018-11-06T10:31:37.366Z,25.63
2018-11-06T10:34:10.182Z,25.13
2018-11-06T10:36:41.611Z,25.33
2018-11-06T10:39:14.504Z,24.97
2018-11-06T10:41:46.452Z,24.27
2018-11-06T10:44:19.152Z,23.83
2018-11-06T10:46:50.534Z,24.20
2018-11-06T10:49:22.544Z,23.80
2018-11-06T10:51:54.085Z,24.90
2018-11-06T10:54:25.467Z,23.60
2018-11-06T10:56:56.560Z,23.93
2018-11-06T10:59:29.366Z,23.33
2018-11-06T11:02:17.983Z,24.93
2018-11-06T11:04:49.920Z,23.80
2018-11-06T11:07:21.035Z,22.83
2018-11-06T11:09:53.068Z,23.27
2018-11-06T11:12:24.097Z,24.53
2018-11-06T11:14:56.138Z,24.87
2018-11-06T11:17:28.904Z,23.30
2018-11-06T11:20:00.304Z,24.87
2018-11-06T11:22:31.370Z,23.33
2018-11-06T11:25:02.735Z,23.03
2018-11-06T11:27:35.266Z,23.37
2018-11-06T11:30:08.849Z,22.70
2018-11-06T11:32:41.210Z,22.63
2018-11-06T11:35:13.858Z,23.10
2018-11-06T11:37:45.965Z,22.90
2018-11-06T11:40:19.279Z,23.17
2018-11-06T11:42:50.753Z,23.03
2018-11-06T11:45:23.614Z,22.70
2018-11-06T11:47:55.600Z,22.40
2018-11-06T11:50:27.005Z,22.80
2018-11-06T11:52:58.387Z,22.70
2018-11-06T11:55:31.131Z,21.87
2018-11-06T11:58:03.985Z,22.33
2018-11-06T12:00:39.324Z,23.40
2018-11-06T12:03:11.047Z,23.60
2018-11-06T12:05:43.440Z,22.67
2018-11-06T12:08:14.827Z,22.90
2018-11-06T12:10:46.693Z,21.87
2018-11-06T12:13:19.856Z,22.83
2018-11-06T12:15:52.171Z,24.37
2018-11-06T12:18:24.343Z,22.50
2018-11-06T12:20:57.265Z,23.20
2018-11-06T12:23:28.775Z,22.00
2018-11-06T12:26:01.079Z,21.93
2018-11-06T12:28:32.129Z,22.40
2018-11-06T12:31:03.276Z,22.50
2018-11-06T12:33:35.740Z,22.40
2018-11-06T12:36:09.218Z,22.07
2018-11-06T12:38:41.346Z,21.90
2018-11-06T12:41:13.799Z,20.33
2018-11-06T12:43:44.804Z,21.50
2018-11-06T12:46:16.840Z,20.30
2018-11-06T12:48:48.844Z,20.47
2018-11-06T12:51:20.992Z,19.97
2018-11-06T12:53:52.841Z,18.40
2018-11-06T12:56:24.243Z,19.80
2018-11-06T12:58:56.489Z,19.00
2018-11-06T13:02:15.910Z,20.10
2018-11-06T13:04:47.969Z,19.57
2018-11-06T13:07:19.743Z,19.90
2018-11-06T13:09:51.205Z,20.17
2018-11-06T13:12:23.948Z,20.33
2018-11-06T13:14:55.308Z,19.53
2018-11-06T13:17:26.088Z,19.97
2018-11-06T13:19:58.239Z,20.10
2018-11-06T13:22:30.246Z,19.93
2018-11-06T13:25:03.442Z,20.23
2018-11-06T13:27:34.843Z,18.63
2018-11-06T13:30:06.777Z,20.00
2018-11-06T13:32:38.692Z,20.03
2018-11-06T13:35:11.167Z,20.47
2018-11-06T13:37:42.986Z,20.80
2018-11-06T13:40:15.363Z,20.03
2018-11-06T13:42:47.658Z,19.60
2018-11-06T13:45:23.895Z,20.07
2018-11-06T13:47:55.636Z,19.57
2018-11-06T13:50:27.673Z,20.03
2018-11-06T13:52:59.943Z,19.97
2018-11-06T13:55:31.386Z,21.50
2018-11-06T13:58:02.502Z,20.50
2018-11-06T14:00:33.961Z,20.23
2018-11-06T14:03:06.230Z,20.83
2018-11-06T14:05:38.060Z,20.00
2018-11-06T14:08:09.112Z,22.27
2018-11-06T14:10:42.071Z,21.27
2018-11-06T14:13:13.117Z,23.43
2018-11-06T14:15:44.149Z,23.43
2018-11-06T14:18:15.197Z,23.53
2018-11-06T14:20:46.685Z,21.73
2018-11-06T14:23:17.872Z,22.80
2018-11-06T14:25:49.913Z,23.43
2018-11-06T14:28:21.981Z,23.03
2018-11-06T14:30:52.989Z,22.13
2018-11-06T14:33:25.150Z,22.40
2018-11-06T14:35:57.091Z,22.33
2018-11-06T14:38:28.377Z,23.07
2018-11-06T14:40:59.890Z,22.53
2018-11-06T14:43:32.090Z,22.27
2018-11-06T14:46:05.009Z,22.47
2018-11-06T14:48:36.218Z,22.90
2018-11-06T14:51:07.083Z,24.63
2018-11-06T14:53:38.867Z,22.67
2018-11-06T14:56:10.110Z,23.43
2018-11-06T14:58:41.940Z,23.80
2018-11-06T15:01:12.965Z,24.80
2018-11-06T15:03:45.353Z,23.20
2018-11-06T15:06:16.591Z,22.13
2018-11-06T15:08:47.602Z,23.63
2018-11-06T15:11:18.672Z,23.77
2018-11-06T15:13:49.718Z,23.13
2018-11-06T15:16:20.736Z,23.27
2018-11-06T15:18:52.576Z,23.07
2018-11-06T15:21:24.419Z,22.50
2018-11-06T15:23:56.190Z,22.33
2018-11-06T15:26:27.307Z,22.30
2018-11-06T15:28:58.716Z,22.97
2018-11-06T15:31:30.073Z,21.97
2018-11-06T15:34:04.078Z,23.63
2018-11-06T15:36:35.851Z,22.43
2018-11-06T15:39:09.383Z,22.17
2018-11-06T15:41:41.733Z,21.37
2018-11-06T15:44:13.972Z,22.47
2018-11-06T15:46:45.512Z,22.20
2018-11-06T15:49:16.611Z,22.40
2018-11-06T15:51:49.052Z,22.77
2018-11-06T15:54:22.738Z,21.77
2018-11-06T15:56:53.821Z,22.47
2018-11-06T15:59:26.391Z,22.97
2018-11-06T16:01:57.459Z,23.23
2018-11-06T16:04:28.924Z,23.50
2018-11-06T16:06:59.997Z,22.93
2018-11-06T16:09:31.833Z,23.47
2018-11-06T16:12:03.345Z,23.67
2018-11-06T16:14:35.788Z,22.43
2018-11-06T16:17:07.101Z,23.10
2018-11-06T16:19:38.528Z,23.57
2018-11-06T16:22:10.256Z,23.30
2018-11-06T16:24:41.742Z,21.90
2018-11-06T16:27:13.745Z,23.77
2018-11-06T16:29:46.482Z,23.80
2018-11-06T16:32:17.569Z,22.20
2018-11-06T16:34:49.124Z,21.87
2018-11-06T16:37:22.067Z,22.90
2018-11-06T16:39:53.146Z,20.50
2018-11-06T16:42:24.776Z,21.23
2018-11-06T16:44:55.882Z,21.33
2018-11-06T16:47:26.904Z,21.43
2018-11-06T16:49:59.413Z,20.90
2018-11-06T16:52:31.326Z,21.83
2018-11-06T16:55:03.405Z,20.53
2018-11-06T16:57:34.845Z,20.93
2018-11-06T17:00:06.896Z,22.47
2018-11-06T17:02:38.438Z,21.77
2018-11-06T17:05:10.690Z,22.63
2018-11-06T17:07:43.552Z,21.93
2018-11-06T17:10:15.986Z,22.00
2018-11-06T17:12:47.050Z,21.30
2018-11-06T17:15:23.078Z,23.90
2018-11-06T17:17:55.093Z,23.80
2018-11-06T17:20:26.431Z,23.00
2018-11-06T17:22:58.284Z,22.50
2018-11-06T17:25:30.281Z,22.67
2018-11-06T17:28:02.054Z,24.17
2018-11-06T17:30:33.116Z,34.73
2018-11-06T17:33:04.548Z,57.83
2018-11-06T17:35:36.991Z,43.63
2018-11-06T17:38:08.017Z,29.67
2018-11-06T17:40:39.381Z,29.23
2018-11-06T17:43:10.407Z,26.43
2018-11-06T17:45:42.505Z,24.83
2018-11-06T17:48:14.764Z,25.40
2018-11-06T17:50:46.282Z,26.53
2018-11-06T17:53:17.286Z,25.43
2018-11-06T17:55:48.337Z,25.40
2018-11-06T17:58:19.796Z,26.93
2018-11-06T18:00:51.669Z,26.13
2018-11-06T20:27:30.097Z,28.03
2018-11-06T20:30:01.580Z,31.20
2018-11-06T20:32:32.927Z,28.87
2018-11-06T20:35:05.165Z,30.73
2018-11-06T20:37:36.536Z,30.53
2018-11-06T20:40:09.988Z,30.03
2018-11-06T20:42:44.314Z,31.83
2018-11-06T20:45:17.948Z,30.90
2018-11-06T20:47:49.433Z,29.23
2018-11-06T20:50:22.919Z,31.53
2018-11-06T20:52:55.445Z,30.53
2018-11-06T20:55:26.864Z,28.87
2018-11-06T20:57:57.880Z,30.97
2018-11-06T21:00:32.064Z,29.33
2018-11-06T21:03:03.819Z,29.07
2018-11-06T21:05:35.001Z,30.37
2018-11-06T21:08:06.655Z,30.40
2018-11-06T21:10:41.383Z,30.83
2018-11-06T21:13:13.983Z,29.80
2018-11-06T21:15:44.962Z,28.93
2018-11-06T21:18:18.535Z,29.43
2018-11-06T21:20:51.455Z,29.90
2018-11-06T21:23:22.592Z,29.87
2018-11-06T21:25:54.070Z,27.93
2018-11-06T21:28:25.331Z,29.53
2018-11-06T21:30:56.412Z,28.20
2018-11-06T21:33:27.428Z,28.67
2018-11-06T21:35:59.003Z,29.90
2018-11-06T21:38:31.015Z,27.63
2018-11-06T21:41:02.518Z,28.87
2018-11-06T21:43:33.679Z,28.53
2018-11-06T21:46:04.838Z,30.97
2018-11-06T21:48:37.150Z,30.60
2018-11-06T21:51:08.698Z,30.30
2018-11-06T21:53:42.188Z,30.57
2018-11-06T21:56:13.230Z,32.13
2018-11-06T21:58:44.767Z,31.00
2018-11-06T22:01:16.544Z,31.43
2018-11-06T22:03:48.869Z,30.37
2018-11-06T22:06:19.881Z,30.83
2018-11-06T22:08:51.018Z,31.90
2018-11-06T22:11:32.439Z,31.03
2018-11-06T22:14:03.901Z,29.50
2018-11-06T22:16:36.416Z,29.30
2018-11-06T22:19:08.632Z,29.73
2018-11-06T22:21:39.709Z,29.70
2018-11-06T22:24:12.061Z,31.00
2018-11-06T22:26:45.620Z,28.10
2018-11-06T22:29:18.346Z,27.47
2018-11-06T22:31:49.566Z,25.73
2018-11-06T22:34:20.872Z,24.07
2018-11-06T22:36:53.625Z,22.77
2018-11-06T22:39:25.685Z,19.60
2018-11-06T22:41:56.758Z,18.97
2018-11-06T22:44:29.869Z,19.30
2018-11-06T22:47:02.021Z,19.33
2018-11-06T22:49:33.027Z,20.20
2018-11-06T22:52:04.105Z,17.97
2018-11-06T22:54:35.709Z,17.17
2018-11-06T22:57:06.962Z,19.63
2018-11-06T22:59:38.594Z,19.00
2018-11-06T23:02:09.610Z,19.70
2018-11-06T23:04:42.877Z,20.10
2018-11-06T23:07:32.384Z,20.10
2018-11-06T23:10:04.734Z,24.97
2018-11-06T23:12:37.500Z,22.47
2018-11-06T23:15:08.644Z,22.27
2018-11-06T23:17:39.690Z,26.30
2018-11-06T23:20:11.242Z,25.87
2018-11-06T23:22:42.266Z,29.40
2018-11-06T23:25:13.303Z,26.97
2018-11-06T23:27:45.292Z,27.27
2018-11-06T23:30:17.924Z,28.77
2018-11-06T23:32:49.871Z,25.80
2018-11-06T23:35:21.550Z,26.40
2018-11-06T23:37:53.339Z,29.00
2018-11-06T23:40:24.380Z,26.63
2018-11-06T23:42:56.348Z,27.73
2018-11-06T23:45:29.266Z,30.57
2018-11-06T23:48:01.293Z,30.77
2018-11-06T23:50:32.309Z,35.37
2018-11-06T23:53:04.730Z,31.80
2018-11-06T23:55:36.178Z,31.17
2018-11-06T23:58:07.175Z,30.67
